createdAt,value
2018-03-30T00:00:02.086Z,100390.13
2018-03-30T00:03:07.432Z,100391.87
2018-03-30T00:06:12.737Z,100394.43
2018-03-30T00:09:29.219Z,100387.31
2018-03-30T00:12:34.488Z,100398.70
2018-03-30T00:15:40.077Z,100400.41
2018-03-30T00:18:45.656Z,100398.35
2018-03-30T00:21:51.245Z,100389.55
2018-03-30T00:24:56.806Z,100390.84
2018-03-30T00:28:02.405Z,100398.44
2018-03-30T00:31:07.949Z,100398.05
2018-03-30T00:34:13.651Z,100398.45
2018-03-30T00:37:19.196Z,100401.83
2018-03-30T00:40:24.788Z,100396.38
2018-03-30T00:43:30.365Z,100397.65
2018-03-30T00:46:35.954Z,100394.28
2018-03-30T00:49:41.515Z,100399.37
2018-03-30T00:52:47.117Z,100400.23
2018-03-30T00:55:52.739Z,100399.39
2018-03-30T00:58:58.292Z,100401.52
2018-03-30T01:02:04.038Z,100390.15
2018-03-30T01:05:09.585Z,100381.75
2018-03-30T01:08:14.934Z,100384.77
2018-03-30T01:11:20.497Z,100387.72
2018-03-30T01:14:25.869Z,100386.08
2018-03-30T01:17:31.534Z,100392.41
2018-03-30T01:20:37.092Z,100399.97
2018-03-30T01:23:42.697Z,100395.41
2018-03-30T01:26:48.298Z,100403.39
2018-03-30T01:29:53.913Z,100405.52
2018-03-30T01:32:59.500Z,100400.04
2018-03-30T01:36:04.854Z,100404.30
2018-03-30T01:39:10.393Z,100401.35
2018-03-30T01:42:15.981Z,100404.28
2018-03-30T01:45:21.533Z,100401.34
2018-03-30T01:48:27.158Z,100404.69
2018-03-30T01:51:32.766Z,100413.52
2018-03-30T01:54:38.376Z,100413.09
2018-03-30T01:57:43.954Z,100422.73
2018-03-30T02:00:49.503Z,100425.28
2018-03-30T02:03:55.094Z,100425.27
2018-03-30T02:07:00.736Z,100425.70
2018-03-30T02:10:06.313Z,100419.83
2018-03-30T02:13:11.970Z,100428.68
2018-03-30T02:16:17.568Z,100431.20
2018-03-30T02:19:23.158Z,100427.00
2018-03-30T02:22:28.742Z,100424.91
2018-03-30T02:25:34.134Z,100423.23
2018-03-30T02:28:39.678Z,100416.08
2018-03-30T02:31:45.277Z,100415.27
2018-03-30T02:34:50.814Z,100413.61
2018-03-30T02:37:56.434Z,100419.09
2018-03-30T02:41:02.049Z,100408.56
2018-03-30T02:44:07.630Z,100402.70
2018-03-30T02:47:13.217Z,100404.00
2018-03-30T02:50:18.753Z,100402.30
2018-03-30T02:53:24.337Z,100394.73
2018-03-30T02:56:29.900Z,100406.95
2018-03-30T02:59:35.483Z,100409.92
2018-03-30T03:02:41.024Z,100408.27
2018-03-30T03:05:46.599Z,100410.81
2018-03-30T03:08:52.137Z,100395.25
2018-03-30T03:11:57.726Z,100399.50
2018-03-30T03:15:03.278Z,100393.60
2018-03-30T03:18:08.864Z,100404.17
2018-03-30T03:21:14.426Z,100402.94
2018-03-30T03:24:20.013Z,100399.16
2018-03-30T03:27:25.556Z,100402.92
2018-03-30T03:30:34.165Z,100404.63
2018-03-30T03:33:39.787Z,100407.16
2018-03-30T03:36:45.389Z,100413.92
2018-03-30T03:39:50.933Z,100411.83
2018-03-30T03:42:56.750Z,100405.57
2018-03-30T03:46:02.306Z,100398.84
2018-03-30T03:49:07.985Z,100389.17
2018-03-30T03:52:16.121Z,100385.37
2018-03-30T03:55:25.502Z,100390.88
2018-03-30T03:58:33.918Z,100403.88
2018-03-30T04:01:41.708Z,100410.64
2018-03-30T04:04:49.545Z,100407.73
2018-03-30T04:07:55.950Z,100411.13
2018-03-30T04:11:01.729Z,100402.73
2018-03-30T04:14:07.386Z,100409.45
2018-03-30T04:17:12.697Z,100416.17
2018-03-30T04:20:18.297Z,100409.89
2018-03-30T04:23:23.848Z,100407.40
2018-03-30T04:26:29.446Z,100403.22
2018-03-30T04:29:35.124Z,100408.28
2018-03-30T04:32:40.668Z,100400.30
2018-03-30T04:35:46.276Z,100388.55
2018-03-30T04:38:51.827Z,100378.08
2018-03-30T04:41:57.402Z,100376.82
2018-03-30T04:45:03.024Z,100378.53
2018-03-30T04:48:08.612Z,100376.86
2018-03-30T04:51:14.200Z,100373.53
2018-03-30T04:54:19.787Z,100374.38
2018-03-30T04:57:25.339Z,100381.55
2018-03-30T05:00:33.597Z,100371.88
2018-03-30T05:03:39.150Z,100373.97
2018-03-30T05:06:44.739Z,100368.53
2018-03-30T05:09:50.285Z,100363.91
2018-03-30T05:12:55.694Z,100366.47
2018-03-30T05:16:01.278Z,100358.05
2018-03-30T05:19:06.862Z,100367.72
2018-03-30T05:22:12.460Z,100369.41
2018-03-30T05:25:17.877Z,100371.07
2018-03-30T05:28:23.431Z,100376.97
2018-03-30T05:31:29.025Z,100388.34
2018-03-30T05:34:34.770Z,100392.53
2018-03-30T05:37:40.372Z,100396.32
2018-03-30T05:40:45.920Z,100400.11
2018-03-30T05:43:51.530Z,100397.16
2018-03-30T05:46:57.097Z,100398.85
2018-03-30T05:50:02.705Z,100404.32
2018-03-30T05:53:08.268Z,100417.34
2018-03-30T05:56:13.869Z,100419.02
2018-03-30T05:59:19.412Z,100421.56
2018-03-30T06:02:25.038Z,100421.13
2018-03-30T06:05:30.840Z,100418.20
2018-03-30T06:08:36.448Z,100421.59
2018-03-30T06:11:42.022Z,100425.84
2018-03-30T06:14:47.452Z,100427.54
2018-03-30T06:17:53.006Z,100426.31
2018-03-30T06:20:58.648Z,100428.79
2018-03-30T06:24:04.678Z,100431.33
2018-03-30T06:27:10.247Z,100429.64
2018-03-30T06:30:15.837Z,100430.06
2018-03-30T06:33:21.405Z,100426.27
2018-03-30T06:36:26.979Z,100424.95
2018-03-30T06:39:32.568Z,100422.37
2018-03-30T06:42:38.101Z,100421.48
2018-03-30T06:45:43.706Z,100417.69
2018-03-30T06:48:49.258Z,100425.66
2018-03-30T06:51:54.890Z,100425.25
2018-03-30T06:55:00.546Z,100412.98
2018-03-30T06:58:06.131Z,100415.06
2018-03-30T07:01:11.681Z,100412.55
2018-03-30T07:04:17.282Z,100414.22
2018-03-30T07:07:22.829Z,100417.48
2018-03-30T07:10:32.400Z,100423.41
2018-03-30T07:13:38.007Z,100420.41
2018-03-30T07:16:43.606Z,100416.13
2018-03-30T07:19:49.219Z,100425.39
2018-03-30T07:22:54.818Z,100423.73
2018-03-30T07:26:00.380Z,100427.89
2018-03-30T07:29:05.965Z,100424.91
2018-03-30T07:32:11.504Z,100424.45
2018-03-30T07:35:17.095Z,100431.92
2018-03-30T07:38:22.639Z,100434.80
2018-03-30T07:41:28.224Z,100436.91
2018-03-30T07:44:33.817Z,100441.95
2018-03-30T07:47:39.431Z,100440.64
2018-03-30T07:50:45.016Z,100439.73
2018-03-30T07:53:50.609Z,100436.27
2018-03-30T07:56:56.190Z,100443.83
2018-03-30T08:00:01.807Z,100434.47
2018-03-30T08:03:07.434Z,100436.14
2018-03-30T08:06:12.998Z,100441.55
2018-03-30T08:09:18.585Z,100441.89
2018-03-30T08:12:23.961Z,100440.97
2018-03-30T08:15:29.383Z,100438.43
2018-03-30T08:18:34.927Z,100438.33
2018-03-30T08:21:40.534Z,100442.90
2018-03-30T08:24:46.090Z,100441.59
2018-03-30T08:27:51.680Z,100442.36
2018-03-30T08:30:57.322Z,100438.98
2018-03-30T08:34:02.929Z,100438.48
2018-03-30T08:37:08.476Z,100438.83
2018-03-30T08:40:14.073Z,100432.07
2018-03-30T08:43:19.654Z,100434.53
2018-03-30T08:46:25.289Z,100431.94
2018-03-30T08:49:30.841Z,100432.74
2018-03-30T08:52:36.416Z,100425.92
2018-03-30T08:55:41.959Z,100433.41
2018-03-30T08:58:47.537Z,100428.67
2018-03-30T09:01:53.138Z,100424.38
2018-03-30T09:04:58.687Z,100424.69
2018-03-30T09:08:04.278Z,100419.06
2018-03-30T09:11:09.825Z,100416.36
2018-03-30T09:14:15.420Z,100414.16
2018-03-30T09:17:20.954Z,100413.56
2018-03-30T09:20:26.557Z,100413.44
2018-03-30T09:23:35.794Z,100417.97
2018-03-30T09:26:41.445Z,100415.33
2018-03-30T09:29:52.495Z,100418.62
2018-03-30T09:32:58.108Z,100413.89
2018-03-30T09:36:03.648Z,100419.73
2018-03-30T09:39:09.258Z,100416.28
2018-03-30T09:42:14.856Z,100410.28
2018-03-30T09:45:20.403Z,100413.59
2018-03-30T09:48:25.993Z,100404.20
2018-03-30T09:51:31.554Z,100404.95
2018-03-30T09:54:37.160Z,100402.75
2018-03-30T09:57:42.742Z,100403.91
2018-03-30T10:00:50.608Z,100401.29
2018-03-30T10:03:56.034Z,100399.06
2018-03-30T10:07:01.614Z,100396.08
2018-03-30T10:10:07.201Z,100398.11
2018-03-30T10:13:12.738Z,100401.77
2018-03-30T10:16:18.397Z,100396.24
2018-03-30T10:19:23.976Z,100389.81
2018-03-30T10:22:29.571Z,100392.69
2018-03-30T10:25:35.161Z,100386.30
2018-03-30T10:28:40.752Z,100390.84
2018-03-30T10:31:46.328Z,100384.45
2018-03-30T10:34:51.982Z,100379.70
2018-03-30T10:37:57.532Z,100373.70
2018-03-30T10:41:03.128Z,100372.34
2018-03-30T10:44:08.718Z,100371.39
2018-03-30T10:47:14.110Z,100369.63
2018-03-30T10:50:19.707Z,100365.80
2018-03-30T10:53:25.286Z,100363.61
2018-03-30T10:56:30.836Z,100369.50
2018-03-30T10:59:36.424Z,100361.36
2018-03-30T11:02:41.969Z,100363.84
2018-03-30T11:05:47.547Z,100357.03
2018-03-30T11:08:53.099Z,100355.67
2018-03-30T11:11:58.776Z,100353.93
2018-03-30T11:15:04.383Z,100357.70
2018-03-30T11:18:10.021Z,100357.64
2018-03-30T11:21:15.617Z,100355.07
2018-03-30T11:24:21.210Z,100362.23
2018-03-30T11:27:26.766Z,100341.84
2018-03-30T11:30:35.881Z,100348.56
2018-03-30T11:33:41.452Z,100348.91
2018-03-30T11:36:46.995Z,100345.06
2018-03-30T11:39:52.581Z,100340.38
2018-03-30T11:42:58.135Z,100343.28
2018-03-30T11:46:03.717Z,100342.78
2018-03-30T11:49:09.321Z,100332.13
2018-03-30T11:52:14.978Z,100329.16
2018-03-30T11:55:20.370Z,100332.08
2018-03-30T11:58:25.913Z,100314.16
2018-03-30T12:01:31.515Z,100310.67
2018-03-30T12:04:37.048Z,100294.16
2018-03-30T12:07:42.624Z,100289.45
2018-03-30T12:10:53.290Z,100286.01
2018-03-30T12:13:58.841Z,100287.65
2018-03-30T12:17:04.424Z,100288.00
2018-03-30T12:20:09.974Z,100281.19
2018-03-30T12:23:15.571Z,100276.44
2018-03-30T12:26:21.113Z,100268.34
2018-03-30T12:29:26.720Z,100259.29
2018-03-30T12:32:32.277Z,100259.67
2018-03-30T12:35:37.878Z,100250.68
2018-03-30T12:38:43.416Z,100239.16
2018-03-30T12:41:48.999Z,100238.16
2018-03-30T12:44:54.649Z,100227.86
2018-03-30T12:48:00.241Z,100221.41
2018-03-30T12:51:05.777Z,100210.69
2018-03-30T12:54:11.362Z,100206.36
2018-03-30T12:57:17.780Z,100213.02
2018-03-30T13:00:23.364Z,100205.70
2018-03-30T13:03:28.902Z,100205.22
2018-03-30T13:06:34.495Z,100200.05
2018-03-30T13:09:40.100Z,100188.09
2018-03-30T13:12:45.687Z,100185.87
2018-03-30T13:15:51.352Z,100184.11
2018-03-30T13:18:56.979Z,100177.23
2018-03-30T13:22:02.517Z,100176.28
2018-03-30T13:25:08.132Z,100166.03
2018-03-30T13:28:13.674Z,100167.17
2018-03-30T13:31:19.252Z,100169.52
2018-03-30T13:34:24.789Z,100158.32
2018-03-30T13:37:30.393Z,100159.98
2018-03-30T13:40:36.245Z,100161.98
2018-03-30T13:43:47.297Z,100155.48
2018-03-30T13:46:53.016Z,100156.19
2018-03-30T13:49:58.304Z,100147.59
2018-03-30T13:53:07.081Z,100141.92
2018-03-30T13:56:12.156Z,100141.70
2018-03-30T13:59:23.865Z,100140.81
2018-03-30T14:02:34.593Z,100138.55
2018-03-30T14:05:56.934Z,100128.30
2018-03-30T14:09:09.525Z,100126.45
2018-03-30T14:12:31.385Z,100114.92
2018-03-30T14:15:46.204Z,100112.23
2018-03-30T14:18:54.082Z,100108.30
2018-03-30T14:21:59.180Z,100101.41
2018-03-30T14:25:05.768Z,100101.67
2018-03-30T14:28:23.543Z,100086.28
2018-03-30T14:31:41.108Z,100090.81
2018-03-30T14:34:47.831Z,100082.73
2018-03-30T14:37:52.902Z,100076.72
2018-03-30T14:40:57.934Z,100069.80
2018-03-30T14:44:14.637Z,100074.37
2018-03-30T14:47:25.305Z,100061.59
2018-03-30T14:54:15.377Z,100065.52
2018-03-30T14:57:35.274Z,100075.20
2018-03-30T15:00:40.710Z,100064.41
2018-03-30T15:03:55.674Z,100062.25
2018-03-30T15:10:59.864Z,100063.27
2018-03-30T15:17:58.154Z,100060.00
2018-03-30T15:21:04.849Z,100073.44
2018-03-30T15:24:11.445Z,100077.97
2018-03-30T15:27:21.283Z,100080.77
2018-03-30T15:30:31.980Z,100086.28
2018-03-30T15:33:39.776Z,100086.63
2018-03-30T15:36:49.233Z,100087.52
2018-03-30T15:39:57.892Z,100084.53
2018-03-30T15:43:06.325Z,100073.98
2018-03-30T15:49:49.886Z,100074.56
2018-03-30T15:52:54.970Z,100072.52
2018-03-30T15:55:59.997Z,100071.31
2018-03-30T15:59:05.133Z,100067.55
2018-03-30T16:02:10.383Z,100066.31
2018-03-30T16:05:15.733Z,100059.97
2018-03-30T16:08:20.789Z,100059.23
2018-03-30T16:11:32.373Z,100054.50
2018-03-30T16:14:37.654Z,100050.80
2018-03-30T16:17:42.947Z,100052.11
2018-03-30T16:20:47.380Z,100049.20
2018-03-30T16:23:51.846Z,100057.33
2018-03-30T16:26:56.399Z,100056.11
2018-03-30T16:30:00.834Z,100053.56
2018-03-30T16:33:05.333Z,100050.73
2018-03-30T16:36:09.764Z,100040.19
2018-03-30T16:39:14.250Z,100044.87
2018-03-30T16:42:18.116Z,100049.93
2018-03-30T16:45:22.021Z,100049.16
2018-03-30T16:48:25.952Z,100044.58
2018-03-30T16:51:29.864Z,100045.91
2018-03-30T16:54:33.726Z,100044.70
2018-03-30T16:57:37.629Z,100040.98
2018-03-30T17:00:41.550Z,100034.73
2018-03-30T17:03:45.474Z,100023.78
2018-03-30T17:06:49.353Z,100022.16
2018-03-30T17:09:53.318Z,100025.59
2018-03-30T17:12:57.176Z,100033.27
2018-03-30T17:16:01.094Z,100026.87
2018-03-30T17:19:04.972Z,100040.58
2018-03-30T17:22:08.889Z,100030.80
2018-03-30T17:25:12.800Z,100036.11
2018-03-30T17:28:16.769Z,100037.00
2018-03-30T17:31:20.676Z,100043.55
2018-03-30T17:34:24.570Z,100048.52
2018-03-30T17:37:28.577Z,100051.59
2018-03-30T17:40:35.258Z,100049.23
2018-03-30T17:43:39.227Z,100051.59
2018-03-30T17:46:43.105Z,100050.00
2018-03-30T17:49:47.015Z,100044.79
2018-03-30T17:52:50.932Z,100053.13
2018-03-30T17:55:54.848Z,100055.73
2018-03-30T17:58:58.762Z,100048.91
2018-03-30T18:02:02.673Z,100049.76
2018-03-30T18:05:06.585Z,100043.16
2018-03-30T18:08:10.449Z,100037.95
2018-03-30T18:11:14.366Z,100033.42
2018-03-30T18:14:18.234Z,100025.63
2018-03-30T18:17:22.245Z,100026.25
2018-03-30T18:20:26.116Z,100021.75
2018-03-30T18:23:30.040Z,100026.86
2018-03-30T18:26:33.910Z,100036.31
2018-03-30T18:29:37.812Z,100045.38
2018-03-30T18:32:41.676Z,100050.47
2018-03-30T18:35:45.635Z,100050.63
2018-03-30T18:38:49.502Z,100043.75
2018-03-30T18:41:53.422Z,100039.55
2018-03-30T18:44:57.337Z,100049.20
2018-03-30T18:48:01.295Z,100041.48
2018-03-30T18:51:05.219Z,100041.95
2018-03-30T18:54:09.093Z,100042.92
2018-03-30T18:57:13.018Z,100050.65
2018-03-30T19:00:16.889Z,100043.96
2018-03-30T19:03:20.814Z,100052.91
2018-03-30T19:06:24.691Z,100047.91
2018-03-30T19:09:28.607Z,100047.16
2018-03-30T19:12:32.481Z,100048.12
2018-03-30T19:15:36.392Z,100047.76
2018-03-30T19:18:40.261Z,100050.45
2018-03-30T19:21:44.176Z,100051.88
2018-03-30T19:24:48.093Z,100045.11
2018-03-30T19:27:51.997Z,100041.38
2018-03-30T19:30:55.925Z,100038.92
2018-03-30T19:33:59.803Z,100039.93
2018-03-30T19:37:03.730Z,100034.51
2018-03-30T19:40:07.624Z,100038.73
2018-03-30T19:43:11.585Z,100041.11
2018-03-30T19:46:15.457Z,100037.11
2018-03-30T19:49:19.362Z,100039.50
2018-03-30T19:52:23.303Z,100041.73
2018-03-30T19:55:27.243Z,100031.73
2018-03-30T19:58:31.159Z,100029.11
2018-03-30T20:01:35.070Z,100030.80
2018-03-30T20:04:38.949Z,100028.30
2018-03-30T20:07:42.876Z,100037.27
2018-03-30T20:10:46.740Z,100023.81
2018-03-30T20:13:50.657Z,100023.01
2018-03-30T20:16:54.538Z,100015.47
2018-03-30T20:19:58.437Z,100019.33
2018-03-30T20:23:02.342Z,100023.55
2018-03-30T20:26:06.245Z,100024.44
2018-03-30T20:29:10.249Z,100027.09
2018-03-30T20:32:14.137Z,100023.70
2018-03-30T20:35:18.180Z,100020.84
2018-03-30T20:38:22.050Z,100029.39
2018-03-30T20:41:25.966Z,100027.31
2018-03-30T20:44:29.837Z,100022.27
2018-03-30T20:47:33.741Z,100014.65
2018-03-30T20:50:37.652Z,100013.02
2018-03-30T20:53:41.522Z,100012.20
2018-03-30T20:56:45.829Z,100007.30
2018-03-30T20:59:49.714Z,100002.18
2018-03-30T21:02:53.620Z,99999.64
2018-03-30T21:05:57.484Z,100005.20
2018-03-30T21:09:01.385Z,99996.30
2018-03-30T21:12:05.285Z,100004.02
2018-03-30T21:15:09.164Z,100009.11
2018-03-30T21:18:13.098Z,100009.52
2018-03-30T21:21:17.009Z,100008.27
2018-03-30T21:24:20.886Z,100012.55
2018-03-30T21:27:24.790Z,100008.72
2018-03-30T21:30:28.656Z,100015.11
2018-03-30T21:33:35.130Z,100005.77
2018-03-30T21:36:39.001Z,99996.52
2018-03-30T21:39:42.897Z,99983.83
2018-03-30T21:42:46.762Z,99986.39
2018-03-30T21:45:50.671Z,99983.80
2018-03-30T21:48:54.530Z,99989.03
2018-03-30T21:51:58.432Z,99987.34
2018-03-30T21:55:02.347Z,99979.34
2018-03-30T21:58:06.208Z,99983.61
2018-03-30T22:01:10.151Z,99979.42
2018-03-30T22:04:14.052Z,99981.97
2018-03-30T22:07:17.964Z,99968.04
2018-03-30T22:10:21.872Z,99979.88
2018-03-30T22:13:25.810Z,99980.23
2018-03-30T22:16:29.710Z,99974.00
2018-03-30T22:19:33.565Z,99976.09
2018-03-30T22:22:37.481Z,99973.60
2018-03-30T22:25:41.341Z,99970.66
2018-03-30T22:28:45.236Z,99969.90
2018-03-30T22:31:49.100Z,99957.66
2018-03-30T22:34:53.011Z,99953.09
2018-03-30T22:37:56.863Z,99952.19
2018-03-30T22:41:00.780Z,99958.16
2018-03-30T22:44:04.645Z,99955.70
2018-03-30T22:47:08.555Z,99951.84
2018-03-30T22:50:12.411Z,99936.82
2018-03-30T22:53:16.325Z,99941.87
2018-03-30T22:56:20.223Z,99938.87
2018-03-30T22:59:24.136Z,99929.70
2018-03-30T23:02:28.029Z,99927.58
2018-03-30T23:05:31.988Z,99916.31
2018-03-30T23:08:36.516Z,99917.16
2018-03-30T23:11:41.076Z,99917.28
2018-03-30T23:14:45.515Z,99915.19
2018-03-30T23:17:49.993Z,99909.36
2018-03-30T23:20:54.417Z,99911.94
2018-03-30T23:23:59.250Z,99909.81
2018-03-30T23:27:03.672Z,99892.61
2018-03-30T23:30:08.195Z,99899.05
2018-03-30T23:33:12.626Z,99901.63
2018-03-30T23:36:16.898Z,99895.70
2018-03-30T23:39:21.336Z,99888.98
2018-03-30T23:42:25.557Z,99891.53
2018-03-30T23:45:29.708Z,99890.33
2018-03-30T23:48:34.174Z,99890.43
2018-03-30T23:51:38.601Z,99892.23
2018-03-30T23:54:43.093Z,99887.92
2018-03-30T23:57:47.563Z,99882.90
